sensor_id;sensor_type;location;lat;lon;timestamp;P1;durP1;ratioP1;P2;durP2;ratioP2
12663;SDS011;6396;58.490;15.528;2022-10-20T00:00:20;1.90;;;1.53;;
12663;SDS011;6396;58.490;15.528;2022-10-20T00:02:47;1.70;;;1.60;;
12663;SDS011;6396;58.490;15.528;2022-10-20T00:05:15;1.47;;;1.37;;
12663;SDS011;6396;58.490;15.528;2022-10-20T00:07:42;1.87;;;1.50;;
12663;SDS011;6396;58.490;15.528;2022-10-20T00:10:09;2.53;;;1.47;;
12663;SDS011;6396;58.490;15.528;2022-10-20T00:12:36;2.23;;;1.40;;
12663;SDS011;6396;58.490;15.528;2022-10-20T00:15:03;1.73;;;1.63;;
12663;SDS011;6396;58.490;15.528;2022-10-20T00:17:30;1.90;;;1.70;;
12663;SDS011;6396;58.490;15.528;2022-10-20T00:19:56;1.83;;;1.60;;
12663;SDS011;6396;58.490;15.528;2022-10-20T00:22:24;2.23;;;1.60;;
12663;SDS011;6396;58.490;15.528;2022-10-20T00:24:51;2.57;;;1.80;;
12663;SDS011;6396;58.490;15.528;2022-10-20T00:27:18;2.50;;;1.80;;
12663;SDS011;6396;58.490;15.528;2022-10-20T00:29:46;2.23;;;1.90;;
12663;SDS011;6396;58.490;15.528;2022-10-20T00:32:13;2.10;;;1.60;;
12663;SDS011;6396;58.490;15.528;2022-10-20T00:34:40;1.73;;;1.50;;
12663;SDS011;6396;58.490;15.528;2022-10-20T00:37:06;1.93;;;1.53;;
12663;SDS011;6396;58.490;15.528;2022-10-20T00:39:35;1.80;;;1.60;;
12663;SDS011;6396;58.490;15.528;2022-10-20T00:42:01;1.60;;;1.50;;
12663;SDS011;6396;58.490;15.528;2022-10-20T00:44:48;2.23;;;1.63;;
12663;SDS011;6396;58.490;15.528;2022-10-20T00:47:18;2.13;;;1.50;;
12663;SDS011;6396;58.490;15.528;2022-10-20T00:49:53;1.90;;;1.50;;
12663;SDS011;6396;58.490;15.528;2022-10-20T00:52:24;2.27;;;1.50;;
12663;SDS011;6396;58.490;15.528;2022-10-20T00:54:52;3.13;;;1.40;;
12663;SDS011;6396;58.490;15.528;2022-10-20T00:57:19;1.73;;;1.50;;
12663;SDS011;6396;58.490;15.528;2022-10-20T00:59:46;2.80;;;1.50;;
12663;SDS011;6396;58.490;15.528;2022-10-20T01:02:13;1.20;;;1.10;;
12663;SDS011;6396;58.490;15.528;2022-10-20T01:04:39;2.13;;;1.47;;
12663;SDS011;6396;58.490;15.528;2022-10-20T01:07:07;1.67;;;1.40;;
12663;SDS011;6396;58.490;15.528;2022-10-20T01:09:33;1.63;;;1.30;;
12663;SDS011;6396;58.490;15.528;2022-10-20T01:12:06;1.63;;;1.53;;
12663;SDS011;6396;58.490;15.528;2022-10-20T01:14:42;4.07;;;1.40;;
12663;SDS011;6396;58.490;15.528;2022-10-20T01:17:20;1.40;;;1.30;;
12663;SDS011;6396;58.490;15.528;2022-10-20T01:23:16;1.30;;;1.20;;
12663;SDS011;6396;58.490;15.528;2022-10-20T01:29:20;1.97;;;1.30;;
12663;SDS011;6396;58.490;15.528;2022-10-20T01:31:55;2.20;;;1.37;;
12663;SDS011;6396;58.490;15.528;2022-10-20T01:34:30;2.87;;;1.30;;
12663;SDS011;6396;58.490;15.528;2022-10-20T01:37:04;2.07;;;1.60;;
12663;SDS011;6396;58.490;15.528;2022-10-20T01:39:39;1.40;;;1.30;;
12663;SDS011;6396;58.490;15.528;2022-10-20T01:42:12;1.73;;;1.40;;
12663;SDS011;6396;58.490;15.528;2022-10-20T01:44:47;1.80;;;1.53;;
12663;SDS011;6396;58.490;15.528;2022-10-20T01:47:16;2.30;;;1.50;;
12663;SDS011;6396;58.490;15.528;2022-10-20T01:49:45;3.60;;;1.57;;
12663;SDS011;6396;58.490;15.528;2022-10-20T01:52:14;1.80;;;1.40;;
12663;SDS011;6396;58.490;15.528;2022-10-20T01:54:41;3.60;;;1.60;;
12663;SDS011;6396;58.490;15.528;2022-10-20T01:57:12;1.50;;;1.40;;
12663;SDS011;6396;58.490;15.528;2022-10-20T01:59:52;2.80;;;1.50;;
12663;SDS011;6396;58.490;15.528;2022-10-20T02:02:31;1.63;;;1.50;;
12663;SDS011;6396;58.490;15.528;2022-10-20T02:05:15;2.63;;;1.20;;
12663;SDS011;6396;58.490;15.528;2022-10-20T02:07:49;1.63;;;1.47;;
12663;SDS011;6396;58.490;15.528;2022-10-20T02:10:18;3.03;;;1.40;;
12663;SDS011;6396;58.490;15.528;2022-10-20T02:12:48;1.53;;;1.43;;
12663;SDS011;6396;58.490;15.528;2022-10-20T02:15:21;1.87;;;1.40;;
12663;SDS011;6396;58.490;15.528;2022-10-20T02:17:51;1.57;;;1.47;;
12663;SDS011;6396;58.490;15.528;2022-10-20T02:20:22;1.53;;;1.43;;
12663;SDS011;6396;58.490;15.528;2022-10-20T02:22:50;1.97;;;1.63;;
12663;SDS011;6396;58.490;15.528;2022-10-20T02:25:17;2.80;;;1.70;;
12663;SDS011;6396;58.490;15.528;2022-10-20T02:27:46;1.53;;;1.30;;
12663;SDS011;6396;58.490;15.528;2022-10-20T02:30:14;2.00;;;1.60;;
12663;SDS011;6396;58.490;15.528;2022-10-20T02:32:45;1.63;;;1.53;;
12663;SDS011;6396;58.490;15.528;2022-10-20T02:35:16;4.23;;;1.90;;
12663;SDS011;6396;58.490;15.528;2022-10-20T02:37:44;1.63;;;1.53;;
12663;SDS011;6396;58.490;15.528;2022-10-20T02:40:11;1.57;;;1.43;;
12663;SDS011;6396;58.490;15.528;2022-10-20T02:42:38;2.93;;;1.83;;
12663;SDS011;6396;58.490;15.528;2022-10-20T02:45:07;2.43;;;1.90;;
12663;SDS011;6396;58.490;15.528;2022-10-20T02:47:34;2.17;;;1.37;;
12663;SDS011;6396;58.490;15.528;2022-10-20T02:50:03;4.57;;;1.93;;
12663;SDS011;6396;58.490;15.528;2022-10-20T02:52:30;2.17;;;1.70;;
12663;SDS011;6396;58.490;15.528;2022-10-20T02:54:57;2.57;;;1.50;;
12663;SDS011;6396;58.490;15.528;2022-10-20T02:57:24;3.70;;;1.80;;
12663;SDS011;6396;58.490;15.528;2022-10-20T02:59:51;1.77;;;1.50;;
12663;SDS011;6396;58.490;15.528;2022-10-20T03:02:18;1.97;;;1.43;;
12663;SDS011;6396;58.490;15.528;2022-10-20T03:04:45;3.43;;;1.70;;
12663;SDS011;6396;58.490;15.528;2022-10-20T03:07:13;1.70;;;1.60;;
12663;SDS011;6396;58.490;15.528;2022-10-20T03:09:40;2.40;;;1.70;;
12663;SDS011;6396;58.490;15.528;2022-10-20T03:12:08;2.30;;;1.73;;
12663;SDS011;6396;58.490;15.528;2022-10-20T03:14:34;2.30;;;1.77;;
12663;SDS011;6396;58.490;15.528;2022-10-20T03:17:01;2.13;;;1.80;;
12663;SDS011;6396;58.490;15.528;2022-10-20T03:19:28;2.03;;;1.80;;
12663;SDS011;6396;58.490;15.528;2022-10-20T03:21:54;2.80;;;1.90;;
12663;SDS011;6396;58.490;15.528;2022-10-20T03:24:23;2.27;;;1.87;;
12663;SDS011;6396;58.490;15.528;2022-10-20T03:26:49;1.97;;;1.77;;
12663;SDS011;6396;58.490;15.528;2022-10-20T03:29:16;2.50;;;1.57;;
12663;SDS011;6396;58.490;15.528;2022-10-20T03:31:43;1.90;;;1.70;;
12663;SDS011;6396;58.490;15.528;2022-10-20T03:34:10;2.23;;;1.80;;
12663;SDS011;6396;58.490;15.528;2022-10-20T03:36:37;1.90;;;1.60;;
12663;SDS011;6396;58.490;15.528;2022-10-20T03:39:04;1.80;;;1.60;;
12663;SDS011;6396;58.490;15.528;2022-10-20T03:41:32;1.70;;;1.40;;
12663;SDS011;6396;58.490;15.528;2022-10-20T03:43:59;1.93;;;1.60;;
12663;SDS011;6396;58.490;15.528;2022-10-20T03:46:25;3.67;;;1.80;;
12663;SDS011;6396;58.490;15.528;2022-10-20T03:48:52;1.83;;;1.57;;
12663;SDS011;6396;58.490;15.528;2022-10-20T03:51:19;1.87;;;1.40;;
12663;SDS011;6396;58.490;15.528;2022-10-20T03:53:46;1.90;;;1.30;;
12663;SDS011;6396;58.490;15.528;2022-10-20T03:56:14;1.67;;;1.40;;
12663;SDS011;6396;58.490;15.528;2022-10-20T03:58:44;1.60;;;1.50;;
12663;SDS011;6396;58.490;15.528;2022-10-20T04:01:12;2.43;;;1.20;;
12663;SDS011;6396;58.490;15.528;2022-10-20T04:03:40;2.40;;;1.67;;
12663;SDS011;6396;58.490;15.528;2022-10-20T04:06:07;1.77;;;1.23;;
12663;SDS011;6396;58.490;15.528;2022-10-20T04:08:34;2.97;;;1.40;;
12663;SDS011;6396;58.490;15.528;2022-10-20T04:11:01;1.97;;;1.30;;
12663;SDS011;6396;58.490;15.528;2022-10-20T04:13:27;2.10;;;1.40;;
12663;SDS011;6396;58.490;15.528;2022-10-20T04:15:56;1.47;;;1.30;;
12663;SDS011;6396;58.490;15.528;2022-10-20T04:18:22;1.77;;;1.40;;
12663;SDS011;6396;58.490;15.528;2022-10-20T04:20:49;3.33;;;1.30;;
12663;SDS011;6396;58.490;15.528;2022-10-20T04:23:16;1.90;;;1.60;;
12663;SDS011;6396;58.490;15.528;2022-10-20T04:25:43;2.47;;;1.40;;
12663;SDS011;6396;58.490;15.528;2022-10-20T04:28:12;2.80;;;1.37;;
12663;SDS011;6396;58.490;15.528;2022-10-20T04:30:40;2.83;;;2.00;;
12663;SDS011;6396;58.490;15.528;2022-10-20T04:33:09;1.83;;;1.73;;
12663;SDS011;6396;58.490;15.528;2022-10-20T04:35:36;1.67;;;1.50;;
12663;SDS011;6396;58.490;15.528;2022-10-20T04:38:03;1.50;;;1.40;;
12663;SDS011;6396;58.490;15.528;2022-10-20T04:40:30;1.50;;;1.40;;
12663;SDS011;6396;58.490;15.528;2022-10-20T04:42:58;3.20;;;1.50;;
12663;SDS011;6396;58.490;15.528;2022-10-20T04:45:25;1.60;;;1.40;;
12663;SDS011;6396;58.490;15.528;2022-10-20T04:47:52;3.80;;;1.70;;
12663;SDS011;6396;58.490;15.528;2022-10-20T04:50:21;1.90;;;1.50;;
12663;SDS011;6396;58.490;15.528;2022-10-20T04:52:47;1.60;;;1.50;;
12663;SDS011;6396;58.490;15.528;2022-10-20T04:55:15;2.23;;;1.37;;
12663;SDS011;6396;58.490;15.528;2022-10-20T04:57:42;2.40;;;1.43;;
12663;SDS011;6396;58.490;15.528;2022-10-20T05:00:09;1.70;;;1.50;;
12663;SDS011;6396;58.490;15.528;2022-10-20T05:02:36;1.80;;;1.70;;
12663;SDS011;6396;58.490;15.528;2022-10-20T05:05:03;2.87;;;1.60;;
12663;SDS011;6396;58.490;15.528;2022-10-20T05:07:32;1.97;;;1.33;;
12663;SDS011;6396;58.490;15.528;2022-10-20T05:09:59;1.50;;;1.40;;
12663;SDS011;6396;58.490;15.528;2022-10-20T05:12:25;1.60;;;1.50;;
12663;SDS011;6396;58.490;15.528;2022-10-20T05:14:52;1.73;;;1.33;;
12663;SDS011;6396;58.490;15.528;2022-10-20T05:17:19;1.50;;;1.40;;
12663;SDS011;6396;58.490;15.528;2022-10-20T05:19:46;8.10;;;2.30;;
12663;SDS011;6396;58.490;15.528;2022-10-20T05:22:13;2.60;;;1.50;;
12663;SDS011;6396;58.490;15.528;2022-10-20T05:24:41;2.37;;;1.63;;
12663;SDS011;6396;58.490;15.528;2022-10-20T05:27:07;3.67;;;1.97;;
12663;SDS011;6396;58.490;15.528;2022-10-20T05:29:34;3.27;;;2.40;;
12663;SDS011;6396;58.490;15.528;2022-10-20T05:32:01;3.00;;;1.97;;
12663;SDS011;6396;58.490;15.528;2022-10-20T05:34:28;3.30;;;1.80;;
12663;SDS011;6396;58.490;15.528;2022-10-20T05:36:55;3.07;;;2.03;;
12663;SDS011;6396;58.490;15.528;2022-10-20T05:39:21;2.33;;;2.13;;
12663;SDS011;6396;58.490;15.528;2022-10-20T05:41:50;3.17;;;2.50;;
12663;SDS011;6396;58.490;15.528;2022-10-20T05:44:16;4.27;;;3.30;;
12663;SDS011;6396;58.490;15.528;2022-10-20T05:46:43;6.57;;;4.93;;
12663;SDS011;6396;58.490;15.528;2022-10-20T05:49:11;9.90;;;6.43;;
12663;SDS011;6396;58.490;15.528;2022-10-20T05:51:39;7.07;;;6.17;;
12663;SDS011;6396;58.490;15.528;2022-10-20T05:54:08;6.43;;;4.73;;
12663;SDS011;6396;58.490;15.528;2022-10-20T05:56:37;5.33;;;4.23;;
12663;SDS011;6396;58.490;15.528;2022-10-20T05:59:05;3.87;;;3.47;;
12663;SDS011;6396;58.490;15.528;2022-10-20T06:01:32;3.33;;;2.63;;
12663;SDS011;6396;58.490;15.528;2022-10-20T06:04:11;2.57;;;1.77;;
12663;SDS011;6396;58.490;15.528;2022-10-20T06:06:39;2.07;;;1.80;;
12663;SDS011;6396;58.490;15.528;2022-10-20T06:09:06;2.00;;;1.80;;
12663;SDS011;6396;58.490;15.528;2022-10-20T06:11:34;5.10;;;2.77;;
12663;SDS011;6396;58.490;15.528;2022-10-20T06:14:02;5.93;;;3.67;;
12663;SDS011;6396;58.490;15.528;2022-10-20T06:16:30;5.03;;;3.90;;
12663;SDS011;6396;58.490;15.528;2022-10-20T06:18:57;6.43;;;5.23;;
12663;SDS011;6396;58.490;15.528;2022-10-20T06:21:25;8.97;;;7.93;;
12663;SDS011;6396;58.490;15.528;2022-10-20T06:23:53;10.03;;;8.63;;
12663;SDS011;6396;58.490;15.528;2022-10-20T06:26:20;9.33;;;7.67;;
12663;SDS011;6396;58.490;15.528;2022-10-20T06:28:49;8.07;;;6.47;;
12663;SDS011;6396;58.490;15.528;2022-10-20T06:31:18;8.20;;;7.13;;
12663;SDS011;6396;58.490;15.528;2022-10-20T06:33:48;11.73;;;10.27;;
12663;SDS011;6396;58.490;15.528;2022-10-20T06:36:16;15.50;;;13.83;;
12663;SDS011;6396;58.490;15.528;2022-10-20T06:38:43;15.33;;;11.90;;
12663;SDS011;6396;58.490;15.528;2022-10-20T06:41:11;8.80;;;7.37;;
12663;SDS011;6396;58.490;15.528;2022-10-20T06:43:39;5.10;;;3.67;;
12663;SDS011;6396;58.490;15.528;2022-10-20T06:46:06;4.60;;;2.67;;
12663;SDS011;6396;58.490;15.528;2022-10-20T06:48:34;3.23;;;2.63;;
12663;SDS011;6396;58.490;15.528;2022-10-20T06:51:03;4.87;;;3.90;;
12663;SDS011;6396;58.490;15.528;2022-10-20T06:53:32;4.70;;;3.63;;
12663;SDS011;6396;58.490;15.528;2022-10-20T06:56:01;3.63;;;3.20;;
12663;SDS011;6396;58.490;15.528;2022-10-20T06:58:30;2.37;;;2.00;;
12663;SDS011;6396;58.490;15.528;2022-10-20T07:00:58;2.83;;;1.80;;
12663;SDS011;6396;58.490;15.528;2022-10-20T07:03:26;2.50;;;2.10;;
12663;SDS011;6396;58.490;15.528;2022-10-20T07:05:52;4.57;;;2.53;;
12663;SDS011;6396;58.490;15.528;2022-10-20T07:08:21;5.20;;;3.97;;
12663;SDS011;6396;58.490;15.528;2022-10-20T07:10:56;7.13;;;4.90;;
12663;SDS011;6396;58.490;15.528;2022-10-20T07:13:23;4.37;;;3.50;;
12663;SDS011;6396;58.490;15.528;2022-10-20T07:15:51;3.50;;;3.20;;
12663;SDS011;6396;58.490;15.528;2022-10-20T07:18:18;3.60;;;2.50;;
12663;SDS011;6396;58.490;15.528;2022-10-20T07:20:45;2.80;;;2.27;;
12663;SDS011;6396;58.490;15.528;2022-10-20T07:23:12;6.40;;;2.00;;
12663;SDS011;6396;58.490;15.528;2022-10-20T07:25:40;2.83;;;1.73;;
12663;SDS011;6396;58.490;15.528;2022-10-20T07:28:07;1.97;;;1.70;;
12663;SDS011;6396;58.490;15.528;2022-10-20T07:30:36;1.90;;;1.77;;
12663;SDS011;6396;58.490;15.528;2022-10-20T07:33:04;2.00;;;1.67;;
12663;SDS011;6396;58.490;15.528;2022-10-20T07:35:31;3.07;;;1.60;;
12663;SDS011;6396;58.490;15.528;2022-10-20T07:37:57;3.30;;;1.77;;
12663;SDS011;6396;58.490;15.528;2022-10-20T07:40:24;2.27;;;1.90;;
12663;SDS011;6396;58.490;15.528;2022-10-20T07:42:53;2.00;;;1.60;;
12663;SDS011;6396;58.490;15.528;2022-10-20T07:45:19;1.90;;;1.50;;
12663;SDS011;6396;58.490;15.528;2022-10-20T07:47:46;2.67;;;1.63;;
12663;SDS011;6396;58.490;15.528;2022-10-20T07:50:13;2.43;;;1.63;;
12663;SDS011;6396;58.490;15.528;2022-10-20T07:52:40;2.17;;;1.60;;
12663;SDS011;6396;58.490;15.528;2022-10-20T07:55:07;3.03;;;2.00;;
12663;SDS011;6396;58.490;15.528;2022-10-20T07:57:34;2.50;;;1.70;;
12663;SDS011;6396;58.490;15.528;2022-10-20T08:00:02;2.00;;;1.80;;
12663;SDS011;6396;58.490;15.528;2022-10-20T08:02:30;1.93;;;1.77;;
12663;SDS011;6396;58.490;15.528;2022-10-20T08:04:56;4.70;;;1.73;;
12663;SDS011;6396;58.490;15.528;2022-10-20T08:07:23;2.13;;;1.90;;
12663;SDS011;6396;58.490;15.528;2022-10-20T08:09:50;4.43;;;1.67;;
12663;SDS011;6396;58.490;15.528;2022-10-20T08:12:16;2.03;;;1.80;;
12663;SDS011;6396;58.490;15.528;2022-10-20T08:14:43;1.80;;;1.70;;
12663;SDS011;6396;58.490;15.528;2022-10-20T08:17:11;2.40;;;1.80;;
12663;SDS011;6396;58.490;15.528;2022-10-20T08:19:38;2.40;;;2.00;;
12663;SDS011;6396;58.490;15.528;2022-10-20T08:22:05;3.20;;;2.20;;
12663;SDS011;6396;58.490;15.528;2022-10-20T08:24:32;2.67;;;1.93;;
12663;SDS011;6396;58.490;15.528;2022-10-20T08:26:59;2.77;;;2.00;;
12663;SDS011;6396;58.490;15.528;2022-10-20T08:29:26;2.77;;;2.27;;
12663;SDS011;6396;58.490;15.528;2022-10-20T08:31:52;2.27;;;1.83;;
12663;SDS011;6396;58.490;15.528;2022-10-20T08:34:21;2.20;;;1.83;;
12663;SDS011;6396;58.490;15.528;2022-10-20T08:36:47;2.23;;;2.03;;
12663;SDS011;6396;58.490;15.528;2022-10-20T08:39:14;2.20;;;2.00;;
12663;SDS011;6396;58.490;15.528;2022-10-20T08:41:42;2.33;;;2.03;;
12663;SDS011;6396;58.490;15.528;2022-10-20T08:44:11;3.70;;;2.10;;
12663;SDS011;6396;58.490;15.528;2022-10-20T08:46:44;2.33;;;1.80;;
12663;SDS011;6396;58.490;15.528;2022-10-20T08:49:12;1.80;;;1.70;;
12663;SDS011;6396;58.490;15.528;2022-10-20T08:51:45;3.83;;;1.80;;
12663;SDS011;6396;58.490;15.528;2022-10-20T08:54:13;3.27;;;1.90;;
12663;SDS011;6396;58.490;15.528;2022-10-20T08:56:41;3.50;;;1.87;;
12663;SDS011;6396;58.490;15.528;2022-10-20T08:59:25;2.33;;;1.90;;
12663;SDS011;6396;58.490;15.528;2022-10-20T09:01:54;2.03;;;1.87;;
12663;SDS011;6396;58.490;15.528;2022-10-20T09:04:23;2.00;;;1.70;;
12663;SDS011;6396;58.490;15.528;2022-10-20T09:06:55;2.40;;;1.67;;
12663;SDS011;6396;58.490;15.528;2022-10-20T09:09:25;2.37;;;1.83;;
12663;SDS011;6396;58.490;15.528;2022-10-20T09:11:58;3.03;;;2.00;;
12663;SDS011;6396;58.490;15.528;2022-10-20T09:14:30;2.70;;;1.77;;
12663;SDS011;6396;58.490;15.528;2022-10-20T09:16:59;2.07;;;1.70;;
12663;SDS011;6396;58.490;15.528;2022-10-20T09:19:26;2.00;;;1.70;;
12663;SDS011;6396;58.490;15.528;2022-10-20T09:21:56;1.93;;;1.73;;
12663;SDS011;6396;58.490;15.528;2022-10-20T09:24:26;3.27;;;1.87;;
12663;SDS011;6396;58.490;15.528;2022-10-20T09:26:55;2.10;;;1.90;;
12663;SDS011;6396;58.490;15.528;2022-10-20T09:29:33;2.20;;;2.00;;
12663;SDS011;6396;58.490;15.528;2022-10-20T09:32:00;2.40;;;2.17;;
12663;SDS011;6396;58.490;15.528;2022-10-20T09:34:27;5.23;;;2.00;;
12663;SDS011;6396;58.490;15.528;2022-10-20T09:36:57;3.57;;;1.70;;
12663;SDS011;6396;58.490;15.528;2022-10-20T09:39:31;3.80;;;1.77;;
12663;SDS011;6396;58.490;15.528;2022-10-20T09:42:01;2.80;;;1.63;;
12663;SDS011;6396;58.490;15.528;2022-10-20T09:44:30;2.30;;;1.50;;
12663;SDS011;6396;58.490;15.528;2022-10-20T09:47:00;2.83;;;1.60;;
12663;SDS011;6396;58.490;15.528;2022-10-20T09:49:28;1.80;;;1.30;;
12663;SDS011;6396;58.490;15.528;2022-10-20T09:51:58;1.77;;;1.40;;
12663;SDS011;6396;58.490;15.528;2022-10-20T09:54:28;2.73;;;1.70;;
12663;SDS011;6396;58.490;15.528;2022-10-20T09:57:02;2.97;;;2.00;;
12663;SDS011;6396;58.490;15.528;2022-10-20T09:59:31;2.63;;;1.70;;
12663;SDS011;6396;58.490;15.528;2022-10-20T10:02:00;3.47;;;2.10;;
12663;SDS011;6396;58.490;15.528;2022-10-20T10:04:33;2.83;;;1.90;;
12663;SDS011;6396;58.490;15.528;2022-10-20T10:07:03;3.90;;;1.80;;
12663;SDS011;6396;58.490;15.528;2022-10-20T10:09:31;1.83;;;1.70;;
12663;SDS011;6396;58.490;15.528;2022-10-20T10:12:01;2.43;;;2.23;;
12663;SDS011;6396;58.490;15.528;2022-10-20T10:14:30;2.07;;;1.80;;
12663;SDS011;6396;58.490;15.528;2022-10-20T10:16:58;4.90;;;2.30;;
12663;SDS011;6396;58.490;15.528;2022-10-20T10:19:26;2.00;;;1.63;;
12663;SDS011;6396;58.490;15.528;2022-10-20T10:21:56;2.90;;;1.80;;
12663;SDS011;6396;58.490;15.528;2022-10-20T10:24:35;1.93;;;1.63;;
12663;SDS011;6396;58.490;15.528;2022-10-20T10:27:07;4.20;;;1.83;;
12663;SDS011;6396;58.490;15.528;2022-10-20T10:29:45;2.53;;;1.83;;
12663;SDS011;6396;58.490;15.528;2022-10-20T10:32:13;2.23;;;1.50;;
12663;SDS011;6396;58.490;15.528;2022-10-20T10:34:42;1.80;;;1.40;;
12663;SDS011;6396;58.490;15.528;2022-10-20T10:37:21;2.07;;;1.60;;
12663;SDS011;6396;58.490;15.528;2022-10-20T10:39:49;3.50;;;1.70;;
12663;SDS011;6396;58.490;15.528;2022-10-20T10:42:24;1.43;;;1.30;;
12663;SDS011;6396;58.490;15.528;2022-10-20T10:45:11;2.17;;;1.50;;
12663;SDS011;6396;58.490;15.528;2022-10-20T10:47:49;2.90;;;1.60;;
12663;SDS011;6396;58.490;15.528;2022-10-20T10:50:35;3.77;;;1.80;;
12663;SDS011;6396;58.490;15.528;2022-10-20T10:53:12;2.60;;;1.43;;
12663;SDS011;6396;58.490;15.528;2022-10-20T10:55:49;1.90;;;1.50;;
12663;SDS011;6396;58.490;15.528;2022-10-20T10:58:31;1.53;;;1.43;;
12663;SDS011;6396;58.490;15.528;2022-10-20T11:01:08;2.00;;;1.27;;
12663;SDS011;6396;58.490;15.528;2022-10-20T11:03:47;2.90;;;1.50;;
12663;SDS011;6396;58.490;15.528;2022-10-20T11:06:29;1.73;;;1.30;;
12663;SDS011;6396;58.490;15.528;2022-10-20T11:09:16;2.90;;;1.70;;
12663;SDS011;6396;58.490;15.528;2022-10-20T11:12:07;4.37;;;1.40;;
12663;SDS011;6396;58.490;15.528;2022-10-20T11:14:49;1.60;;;1.27;;
12663;SDS011;6396;58.490;15.528;2022-10-20T11:17:30;2.30;;;1.67;;
12663;SDS011;6396;58.490;15.528;2022-10-20T11:20:18;2.70;;;1.63;;
12663;SDS011;6396;58.490;15.528;2022-10-20T11:22:52;3.93;;;1.40;;
12663;SDS011;6396;58.490;15.528;2022-10-20T11:25:46;3.27;;;1.50;;
12663;SDS011;6396;58.490;15.528;2022-10-20T11:28:24;4.37;;;1.43;;
12663;SDS011;6396;58.490;15.528;2022-10-20T11:30:54;2.67;;;1.40;;
12663;SDS011;6396;58.490;15.528;2022-10-20T11:33:23;2.00;;;1.40;;
12663;SDS011;6396;58.490;15.528;2022-10-20T11:35:55;1.70;;;1.50;;
12663;SDS011;6396;58.490;15.528;2022-10-20T11:38:29;2.53;;;1.70;;
12663;SDS011;6396;58.490;15.528;2022-10-20T11:41:02;8.30;;;1.80;;
12663;SDS011;6396;58.490;15.528;2022-10-20T11:43:35;1.87;;;1.50;;
12663;SDS011;6396;58.490;15.528;2022-10-20T11:46:07;3.17;;;1.60;;
12663;SDS011;6396;58.490;15.528;2022-10-20T11:48:37;2.10;;;1.50;;
12663;SDS011;6396;58.490;15.528;2022-10-20T11:57:06;4.63;;;1.60;;
12663;SDS011;6396;58.490;15.528;2022-10-20T12:05:54;2.80;;;1.83;;
12663;SDS011;6396;58.490;15.528;2022-10-20T12:08:48;3.93;;;1.50;;
12663;SDS011;6396;58.490;15.528;2022-10-20T12:11:28;2.07;;;1.50;;
12663;SDS011;6396;58.490;15.528;2022-10-20T12:14:00;2.13;;;1.60;;
12663;SDS011;6396;58.490;15.528;2022-10-20T12:19:51;1.97;;;1.37;;
12663;SDS011;6396;58.490;15.528;2022-10-20T12:22:58;1.90;;;1.23;;
12663;SDS011;6396;58.490;15.528;2022-10-20T12:25:34;2.43;;;1.23;;
12663;SDS011;6396;58.490;15.528;2022-10-20T12:31:07;2.47;;;1.40;;
12663;SDS011;6396;58.490;15.528;2022-10-20T12:33:35;1.90;;;1.50;;
12663;SDS011;6396;58.490;15.528;2022-10-20T12:39:15;2.20;;;1.40;;
12663;SDS011;6396;58.490;15.528;2022-10-20T12:41:53;1.77;;;1.40;;
12663;SDS011;6396;58.490;15.528;2022-10-20T12:44:23;1.40;;;1.30;;
12663;SDS011;6396;58.490;15.528;2022-10-20T12:46:52;2.37;;;1.50;;
12663;SDS011;6396;58.490;15.528;2022-10-20T12:49:23;1.50;;;1.37;;
12663;SDS011;6396;58.490;15.528;2022-10-20T12:51:55;3.60;;;1.90;;
12663;SDS011;6396;58.490;15.528;2022-10-20T12:54:26;3.00;;;1.57;;
12663;SDS011;6396;58.490;15.528;2022-10-20T12:56:59;2.47;;;1.57;;
12663;SDS011;6396;58.490;15.528;2022-10-20T12:59:32;1.73;;;1.17;;
12663;SDS011;6396;58.490;15.528;2022-10-20T13:05:27;3.13;;;1.40;;
12663;SDS011;6396;58.490;15.528;2022-10-20T13:14:11;1.63;;;1.30;;
12663;SDS011;6396;58.490;15.528;2022-10-20T13:16:48;2.63;;;1.33;;
12663;SDS011;6396;58.490;15.528;2022-10-20T13:19:23;3.13;;;1.50;;
12663;SDS011;6396;58.490;15.528;2022-10-20T13:21:58;2.67;;;1.60;;
12663;SDS011;6396;58.490;15.528;2022-10-20T13:25:12;2.80;;;1.40;;
12663;SDS011;6396;58.490;15.528;2022-10-20T13:27:48;2.13;;;1.57;;
12663;SDS011;6396;58.490;15.528;2022-10-20T13:30:18;2.13;;;1.50;;
12663;SDS011;6396;58.490;15.528;2022-10-20T13:32:49;1.80;;;1.53;;
12663;SDS011;6396;58.490;15.528;2022-10-20T13:35:23;1.90;;;1.43;;
12663;SDS011;6396;58.490;15.528;2022-10-20T13:37:56;2.50;;;1.40;;
12663;SDS011;6396;58.490;15.528;2022-10-20T13:40:29;1.43;;;1.27;;
12663;SDS011;6396;58.490;15.528;2022-10-20T13:43:10;1.90;;;1.50;;
12663;SDS011;6396;58.490;15.528;2022-10-20T13:46:10;1.40;;;1.30;;
12663;SDS011;6396;58.490;15.528;2022-10-20T13:51:45;1.20;;;1.10;;
12663;SDS011;6396;58.490;15.528;2022-10-20T13:54:16;2.93;;;1.50;;
12663;SDS011;6396;58.490;15.528;2022-10-20T13:56:49;1.90;;;1.33;;
12663;SDS011;6396;58.490;15.528;2022-10-20T13:59:29;1.67;;;1.10;;
12663;SDS011;6396;58.490;15.528;2022-10-20T14:01:59;2.17;;;1.10;;
12663;SDS011;6396;58.490;15.528;2022-10-20T14:04:28;1.37;;;1.07;;
12663;SDS011;6396;58.490;15.528;2022-10-20T14:07:01;2.13;;;1.30;;
12663;SDS011;6396;58.490;15.528;2022-10-20T14:09:29;1.80;;;1.27;;
12663;SDS011;6396;58.490;15.528;2022-10-20T14:11:57;1.20;;;1.10;;
12663;SDS011;6396;58.490;15.528;2022-10-20T14:14:33;1.97;;;1.23;;
12663;SDS011;6396;58.490;15.528;2022-10-20T14:17:14;2.00;;;1.20;;
12663;SDS011;6396;58.490;15.528;2022-10-20T14:19:44;2.83;;;1.47;;
12663;SDS011;6396;58.490;15.528;2022-10-20T14:22:12;2.87;;;1.30;;
12663;SDS011;6396;58.490;15.528;2022-10-20T14:24:43;1.37;;;1.27;;
12663;SDS011;6396;58.490;15.528;2022-10-20T14:27:13;2.93;;;1.30;;
12663;SDS011;6396;58.490;15.528;2022-10-20T14:29:45;1.60;;;1.30;;
12663;SDS011;6396;58.490;15.528;2022-10-20T14:32:14;2.60;;;1.40;;
12663;SDS011;6396;58.490;15.528;2022-10-20T14:34:52;2.63;;;2.07;;
12663;SDS011;6396;58.490;15.528;2022-10-20T14:37:22;3.87;;;1.50;;
12663;SDS011;6396;58.490;15.528;2022-10-20T14:39:58;3.17;;;1.57;;
12663;SDS011;6396;58.490;15.528;2022-10-20T14:42:27;1.53;;;1.40;;
12663;SDS011;6396;58.490;15.528;2022-10-20T14:44:58;1.80;;;1.60;;
12663;SDS011;6396;58.490;15.528;2022-10-20T14:47:26;1.60;;;1.40;;
12663;SDS011;6396;58.490;15.528;2022-10-20T14:49:59;3.60;;;1.60;;
12663;SDS011;6396;58.490;15.528;2022-10-20T14:52:27;1.70;;;1.60;;
12663;SDS011;6396;58.490;15.528;2022-10-20T14:54:55;1.60;;;1.50;;
12663;SDS011;6396;58.490;15.528;2022-10-20T14:57:29;3.60;;;2.07;;
12663;SDS011;6396;58.490;15.528;2022-10-20T15:02:54;2.40;;;1.50;;
12663;SDS011;6396;58.490;15.528;2022-10-20T15:05:29;1.93;;;1.80;;
12663;SDS011;6396;58.490;15.528;2022-10-20T15:07:58;2.07;;;1.87;;
12663;SDS011;6396;58.490;15.528;2022-10-20T15:10:33;2.30;;;1.80;;
12663;SDS011;6396;58.490;15.528;2022-10-20T15:13:00;2.93;;;2.20;;
12663;SDS011;6396;58.490;15.528;2022-10-20T15:15:34;3.13;;;2.00;;
12663;SDS011;6396;58.490;15.528;2022-10-20T15:18:09;3.33;;;1.90;;
12663;SDS011;6396;58.490;15.528;2022-10-20T15:20:40;2.63;;;2.10;;
12663;SDS011;6396;58.490;15.528;2022-10-20T15:23:09;2.33;;;2.13;;
12663;SDS011;6396;58.490;15.528;2022-10-20T15:25:40;4.07;;;2.50;;
12663;SDS011;6396;58.490;15.528;2022-10-20T15:31:05;3.37;;;2.70;;
12663;SDS011;6396;58.490;15.528;2022-10-20T15:33:41;4.40;;;3.30;;
12663;SDS011;6396;58.490;15.528;2022-10-20T15:36:09;5.17;;;2.90;;
12663;SDS011;6396;58.490;15.528;2022-10-20T15:38:39;4.77;;;3.63;;
12663;SDS011;6396;58.490;15.528;2022-10-20T15:41:05;3.87;;;2.10;;
12663;SDS011;6396;58.490;15.528;2022-10-20T15:43:32;3.50;;;2.57;;
12663;SDS011;6396;58.490;15.528;2022-10-20T15:45:59;2.90;;;2.00;;
12663;SDS011;6396;58.490;15.528;2022-10-20T15:48:27;3.37;;;1.90;;
12663;SDS011;6396;58.490;15.528;2022-10-20T15:50:54;1.93;;;1.50;;
12663;SDS011;6396;58.490;15.528;2022-10-20T15:53:23;2.03;;;1.80;;